Time,TemperatureF,DewpointF,PressureIn,WindDirection,WindDirectionDegrees,WindSpeedMPH,WindSpeedGustMPH,Humidity,HourlyPrecipIn,Conditions,Clouds,dailyrainin,SoftwareType,DateUTC
2013-02-28 00:19:00,39.8,38.7,29.66,WSW,240,0.0,0.0,96,0.00,,BKN170,0.00,VWS V14.00,2013-02-28 05:19:00,
2013-02-28 00:38:00,39.8,39.2,29.65,WSW,240,0.0,0.0,98,0.00,,BKN170,0.00,VWS V14.00,2013-02-28 05:38:00,
2013-02-28 00:59:00,39.9,39.4,29.66,WSW,240,0.0,0.0,98,0.00,,BKN170,0.00,VWS V14.00,2013-02-28 05:59:00,
2013-02-28 01:19:00,39.8,39.4,29.65,WSW,240,0.0,0.0,99,0.00,,BKN170,0.00,VWS V14.00,2013-02-28 06:19:00,
2013-02-28 01:38:00,39.8,39.4,29.65,West,259,0.0,5.2,98,0.00,,BKN170,0.00,VWS V14.00,2013-02-28 06:38:00,
2013-02-28 01:59:00,39.9,39.5,29.66,SSE,166,3.0,6.2,99,0.00,,OVC085,0.00,VWS V14.00,2013-02-28 06:59:00,
2013-02-28 02:19:00,40.7,40.0,29.65,West,274,0.0,9.1,98,0.00,,OVC085,0.00,VWS V14.00,2013-02-28 07:19:00,
2013-02-28 02:39:00,39.0,38.9,29.65,WSW,246,0.0,3.4,100,0.00,,OVC085,0.00,VWS V14.00,2013-02-28 07:39:00,
2013-02-28 02:59:00,40.5,40.5,29.66,West,260,0.0,6.6,100,0.00,,OVC080,0.00,VWS V14.00,2013-02-28 07:59:00,
2013-02-28 03:19:00,41.1,40.8,29.66,West,271,7.1,11.1,99,0.00,,OVC080,0.00,VWS V14.00,2013-02-28 08:19:00,
2013-02-28 03:39:00,41.1,40.9,29.66,NW,304,4.5,8.3,99,0.00,,OVC080,0.00,VWS V14.00,2013-02-28 08:39:00,
2013-02-28 03:59:00,41.0,40.9,29.66,WNW,294,2.7,7.4,100,0.00,,-RA,0.00,VWS V14.00,2013-02-28 08:59:00,
2013-02-28 04:19:00,38.9,38.9,29.66,NW,315,0.0,7.0,100,0.01,,-RA,0.01,VWS V14.00,2013-02-28 09:19:00,
2013-02-28 04:39:00,40.2,40.2,29.66,NW,315,0.0,0.0,100,0.01,,-RA,0.02,VWS V14.00,2013-02-28 09:39:00,
2013-02-28 04:59:00,39.8,39.8,29.66,NW,315,0.0,0.0,100,0.01,,-RA,0.02,VWS V14.00,2013-02-28 09:59:00,
2013-02-28 05:19:00,39.7,39.7,29.66,NW,315,0.0,0.0,100,0.01,,-RA,0.02,VWS V14.00,2013-02-28 10:19:00,
2013-02-28 05:39:00,39.7,39.7,29.67,NW,315,0.0,0.0,100,0.00,,-RA,0.02,VWS V14.00,2013-02-28 10:39:00,
2013-02-28 05:59:00,37.4,37.4,29.67,WNW,284,3.3,5.3,100,0.00,,OVC060,0.02,VWS V14.00,2013-02-28 10:59:00,
2013-02-28 06:18:00,39.4,39.4,29.68,West,270,3.3,7.2,100,0.00,,OVC060,0.02,VWS V14.00,2013-02-28 11:18:00,
2013-02-28 06:39:00,39.0,39.0,29.68,WNW,300,0.0,6.8,100,0.01,,OVC060,0.03,VWS V14.00,2013-02-28 11:39:00,
2013-02-28 06:58:00,38.3,38.3,29.68,SW,231,0.0,7.0,100,0.01,,-RA,0.03,VWS V14.00,2013-02-28 11:58:00,
2013-02-28 07:18:00,38.5,38.5,29.68,West,281,0.0,4.6,100,0.00,,-RA,0.03,VWS V14.00,2013-02-28 12:18:00,
2013-02-28 07:39:00,37.7,37.7,29.69,West,281,0.0,0.0,100,0.00,,-RA,0.03,VWS V14.00,2013-02-28 12:39:00,
2013-02-28 07:58:00,37.7,37.7,29.69,West,281,0.0,0.0,100,0.00,,-RA,0.03,VWS V14.00,2013-02-28 12:58:00,
2013-02-28 08:18:00,38.9,38.9,29.69,West,269,3.1,7.3,100,0.00,,OVC090,0.03,VWS V14.00,2013-02-28 13:18:00,
2013-02-28 08:39:00,40.0,40.0,29.69,WSW,250,0.0,7.1,100,0.00,,OVC090,0.03,VWS V14.00,2013-02-28 13:39:00,
2013-02-28 08:59:00,39.7,38.0,29.69,West,263,3.0,7.9,93,0.00,,BKN250,0.03,VWS V14.00,2013-02-28 13:59:00,
2013-02-28 09:18:00,41.8,37.9,29.68,NW,304,5.7,9.1,86,0.00,,BKN250,0.03,VWS V14.00,2013-02-28 14:18:00,
2013-02-28 09:39:00,42.3,35.8,29.68,NW,312,0.0,12.4,77,0.00,,BKN250,0.03,VWS V14.00,2013-02-28 14:39:00,
2013-02-28 09:59:00,44.7,36.2,29.68,West,281,4.7,13.7,72,0.00,,BKN250,0.03,VWS V14.00,2013-02-28 14:59:00,
2013-02-28 10:19:00,43.3,32.7,29.67,WNW,288,0.0,12.3,66,0.00,,BKN250,0.03,VWS V14.00,2013-02-28 15:19:00,
2013-02-28 10:38:00,45.9,34.2,29.67,NW,321,5.5,10.4,63,0.00,,BKN250,0.03,VWS V14.00,2013-02-28 15:38:00,
2013-02-28 10:59:00,45.4,32.7,29.66,WNW,300,5.5,14.5,61,0.00,,BKN250,0.03,VWS V14.00,2013-02-28 15:59:00,
2013-02-28 11:18:00,46.8,31.9,29.66,WNW,301,12.6,16.3,56,0.00,,BKN250,0.03,VWS V14.00,2013-02-28 16:18:00,
2013-02-28 11:38:00,47.5,31.5,29.65,West,269,4.6,12.6,54,0.00,,BKN250,0.03,VWS V14.00,2013-02-28 16:38:00,
2013-02-28 11:59:00,46.3,29.3,29.65,NNW,330,7.0,16.1,51,0.00,,BKN250,0.03,VWS V14.00,2013-02-28 16:59:00,
2013-02-28 12:18:00,45.1,29.9,29.66,NW,316,11.6,14.2,55,0.00,,BKN250,0.03,VWS V14.00,2013-02-28 17:18:00,
2013-02-28 12:38:00,45.1,30.3,29.65,West,266,7.7,18.8,56,0.00,,BKN250,0.03,VWS V14.00,2013-02-28 17:38:00,
2013-02-28 12:59:00,44.7,30.7,29.65,WNW,287,8.3,15.0,58,0.00,,OVC220,0.03,VWS V14.00,2013-02-28 17:59:00,
2013-02-28 13:18:00,45.5,31.1,29.64,West,276,5.4,14.7,57,0.00,,OVC220,0.03,VWS V14.00,2013-02-28 18:18:00,
2013-02-28 13:38:00,45.4,31.4,29.64,West,270,7.8,17.5,58,0.00,,OVC220,0.03,VWS V14.00,2013-02-28 18:38:00,
2013-02-28 13:59:00,44.5,31.5,29.64,West,274,5.9,13.4,60,0.00,,OVC160,0.03,VWS V14.00,2013-02-28 18:59:00,
2013-02-28 14:19:00,42.8,31.4,29.65,WNW,300,10.3,16.8,64,0.00,,OVC160,0.03,VWS V14.00,2013-02-28 19:19:00,
2013-02-28 14:38:00,43.6,33.9,29.65,West,270,12.6,15.9,68,0.00,,OVC160,0.03,VWS V14.00,2013-02-28 19:38:00,
2013-02-28 14:59:00,45.4,34.5,29.65,WNW,297,8.3,14.6,65,0.00,,OVC250,0.03,VWS V14.00,2013-02-28 19:59:00,
2013-02-28 15:19:00,45.0,33.2,29.65,West,267,8.6,14.5,63,0.00,,OVC250,0.03,VWS V14.00,2013-02-28 20:19:00,
2013-02-28 15:38:00,44.2,32.3,29.65,SSW,194,7.6,13.0,63,0.00,,OVC250,0.03,VWS V14.00,2013-02-28 20:38:00,
2013-02-28 15:59:00,44.6,33.0,29.65,West,277,7.9,12.3,64,0.00,,OVC250,0.03,VWS V14.00,2013-02-28 20:59:00,
2013-02-28 16:19:00,42.6,31.8,29.65,West,269,6.6,12.2,65,0.00,,-RA,0.03,VWS V14.00,2013-02-28 21:19:00,
2013-02-28 16:38:00,43.2,32.4,29.65,West,267,7.8,14.4,65,0.00,,-RA,0.03,VWS V14.00,2013-02-28 21:38:00,
2013-02-28 16:59:00,41.9,30.4,29.65,WSW,238,3.4,16.5,64,0.00,,-RA,0.03,VWS V14.00,2013-02-28 21:59:00,
2013-02-28 17:19:00,42.6,31.4,29.66,WNW,287,5.6,11.7,64,0.00,,-RA,0.03,VWS V14.00,2013-02-28 22:19:00,
2013-02-28 17:38:00,42.4,31.8,29.67,WNW,295,7.8,11.4,66,0.00,,-RA,0.03,VWS V14.00,2013-02-28 22:38:00,
2013-02-28 17:59:00,40.7,30.6,29.68,WNW,291,2.4,9.4,67,0.00,,BKN250,0.03,VWS V14.00,2013-02-28 22:59:00,
2013-02-28 18:19:00,41.3,31.5,29.69,WNW,297,8.3,15.4,68,0.00,,BKN250,0.03,VWS V14.00,2013-02-28 23:19:00,
2013-02-28 18:38:00,41.2,32.8,29.70,WSW,249,7.8,15.7,72,0.00,,BKN250,0.03,VWS V14.00,2013-02-28 23:38:00,
2013-02-28 18:59:00,39.3,31.5,29.71,WNW,290,5.5,17.5,73,0.00,,OVC055,0.03,VWS V14.00,2013-02-28 23:59:00,
2013-02-28 19:19:00,39.7,32.2,29.71,WNW,290,6.6,14.5,74,0.00,,OVC055,0.03,VWS V14.00,2013-03-01 00:19:00,
2013-02-28 19:38:00,39.6,32.7,29.72,West,281,4.8,13.0,76,0.00,,OVC055,0.03,VWS V14.00,2013-03-01 00:38:00,
2013-02-28 19:58:00,38.1,31.9,29.72,West,280,3.1,7.5,78,0.00,,OVC055,0.03,VWS V14.00,2013-03-01 00:58:00,
2013-02-28 20:19:00,39.9,34.0,29.73,SW,221,0.0,7.3,79,0.00,,OVC055,0.03,VWS V14.00,2013-03-01 01:19:00,
2013-02-28 20:39:00,39.2,33.6,29.73,West,281,0.0,6.5,80,0.00,,OVC055,0.03,VWS V14.00,2013-03-01 01:39:00,
2013-02-28 20:58:00,38.3,32.7,29.73,WNW,294,0.0,7.8,80,0.00,,OVC060,0.03,VWS V14.00,2013-03-01 01:58:00,
2013-02-28 21:19:00,39.2,33.5,29.73,West,267,4.7,8.5,80,0.00,,OVC060,0.03,VWS V14.00,2013-03-01 02:19:00,
2013-02-28 21:39:00,37.4,31.7,29.73,West,260,0.0,8.1,80,0.00,,OVC060,0.03,VWS V14.00,2013-03-01 02:39:00,
2013-02-28 21:59:00,37.9,32.3,29.73,West,271,0.0,7.8,80,0.00,,OVC110,0.03,VWS V14.00,2013-03-01 02:59:00,
2013-02-28 22:19:00,39.1,33.3,29.72,WNW,284,0.0,10.0,80,0.00,,OVC110,0.03,VWS V14.00,2013-03-01 03:19:00,
2013-02-28 22:39:00,38.6,32.6,29.72,West,280,2.7,10.4,79,0.00,,OVC110,0.03,VWS V14.00,2013-03-01 03:39:00,
2013-02-28 22:58:00,38.2,32.1,29.72,West,273,4.8,11.1,78,0.00,,OVC090,0.03,VWS V14.00,2013-03-01 03:58:00,
2013-02-28 23:19:00,39.1,32.9,29.72,West,270,3.3,9.8,78,0.00,,OVC090,0.03,VWS V14.00,2013-03-01 04:19:00,
2013-02-28 23:38:00,39.9,33.7,29.71,WNW,285,4.3,9.7,78,0.00,,OVC090,0.03,VWS V14.00,2013-03-01 04:38:00,